createdAt,value
2019-02-28T00:00:43.455Z,2.46
2019-02-28T00:01:46.468Z,2.48
2019-02-28T00:02:43.446Z,2.41
2019-02-28T00:03:43.423Z,2.34
2019-02-28T00:04:43.415Z,2.38
2019-02-28T00:05:43.399Z,2.19
2019-02-28T00:06:44.253Z,2.26
2019-02-28T00:07:43.411Z,2.27
2019-02-28T00:08:43.367Z,2.12
2019-02-28T00:09:43.357Z,2.12
2019-02-28T00:10:43.356Z,2.06
2019-02-28T00:11:43.336Z,2.12
2019-02-28T00:12:45.228Z,2.09
2019-02-28T00:13:43.340Z,2.06
2019-02-28T00:14:43.300Z,2.15
2019-02-28T00:15:43.289Z,2.28
2019-02-28T00:16:43.305Z,2.22
2019-02-28T00:17:43.684Z,2.40
2019-02-28T00:18:43.256Z,2.30
2019-02-28T00:19:43.277Z,2.40
2019-02-28T00:20:43.236Z,2.35
2019-02-28T00:21:43.233Z,2.37
2019-02-28T00:22:43.215Z,2.28
2019-02-28T00:23:43.199Z,2.34
2019-02-28T00:24:43.188Z,2.40
2019-02-28T00:25:43.217Z,2.41
2019-02-28T00:26:47.650Z,2.40
2019-02-28T00:27:43.156Z,2.31
2019-02-28T00:28:43.156Z,2.48
2019-02-28T00:29:43.132Z,2.37
2019-02-28T00:30:43.123Z,2.35
2019-02-28T00:31:43.122Z,2.27
2019-02-28T00:32:43.099Z,2.34
2019-02-28T00:33:43.090Z,2.37
2019-02-28T00:34:43.086Z,2.23
2019-02-28T00:35:44.753Z,2.35
2019-02-28T00:36:43.095Z,2.33
2019-02-28T00:37:43.043Z,2.23
2019-02-28T00:38:43.033Z,2.22
2019-02-28T00:39:43.022Z,2.26
2019-02-28T00:40:43.021Z,2.15
2019-02-28T00:41:44.502Z,2.20
2019-02-28T00:42:43.020Z,2.15
2019-02-28T00:43:42.976Z,2.06
2019-02-28T00:44:42.970Z,2.19
2019-02-28T00:45:42.955Z,2.13
2019-02-28T00:46:45.206Z,2.04
2019-02-28T00:47:42.931Z,2.13
2019-02-28T00:48:42.964Z,2.13
2019-02-28T00:49:42.910Z,1.99
2019-02-28T00:50:42.900Z,1.99
2019-02-28T00:51:42.887Z,2.01
2019-02-28T00:52:42.888Z,2.04
2019-02-28T00:53:42.866Z,2.04
2019-02-28T00:54:44.342Z,1.98
2019-02-28T00:55:45.977Z,2.01
2019-02-28T00:56:42.833Z,1.93
2019-02-28T00:57:42.822Z,1.99
2019-02-28T00:58:42.838Z,1.94
2019-02-28T00:59:42.813Z,1.90
2019-02-28T01:00:42.826Z,1.93
2019-02-28T01:01:43.125Z,1.91
2019-02-28T01:02:42.766Z,1.89
2019-02-28T01:03:42.760Z,1.85
2019-02-28T01:04:42.754Z,1.97
2019-02-28T01:05:42.733Z,1.85
2019-02-28T01:06:42.761Z,1.90
2019-02-28T01:07:42.712Z,1.90
2019-02-28T01:08:45.583Z,2.01
2019-02-28T01:09:42.689Z,1.97
2019-02-28T01:10:42.689Z,1.93
2019-02-28T01:11:44.771Z,1.91
2019-02-28T01:12:42.655Z,1.97
2019-02-28T01:13:42.644Z,2.04
2019-02-28T01:14:42.633Z,2.04
2019-02-28T01:15:44.860Z,1.91
2019-02-28T01:16:42.616Z,1.94
2019-02-28T01:17:42.614Z,1.89
2019-02-28T01:18:42.590Z,1.87
2019-02-28T01:19:42.578Z,1.89
2019-02-28T01:20:42.567Z,1.94
2019-02-28T01:21:42.567Z,1.90
2019-02-28T01:22:42.546Z,1.85
2019-02-28T01:23:42.549Z,1.99
2019-02-28T01:24:42.529Z,1.97
2019-02-28T01:25:42.513Z,1.90
2019-02-28T01:26:43.314Z,1.82
2019-02-28T01:27:42.491Z,1.97
2019-02-28T01:28:42.479Z,1.89
2019-02-28T01:29:42.498Z,1.87
2019-02-28T01:30:42.456Z,1.94
2019-02-28T01:31:43.258Z,2.01
2019-02-28T01:32:42.434Z,2.04
2019-02-28T01:33:42.423Z,2.04
2019-02-28T01:34:42.426Z,1.94
2019-02-28T01:35:42.408Z,2.04
2019-02-28T01:36:42.389Z,2.08
2019-02-28T01:37:42.376Z,2.06
2019-02-28T01:38:42.365Z,2.08
2019-02-28T01:39:42.395Z,2.08
2019-02-28T01:40:42.345Z,2.17
2019-02-28T01:41:45.120Z,2.13
2019-02-28T01:42:42.324Z,2.20
2019-02-28T01:43:42.315Z,2.38
2019-02-28T01:44:42.300Z,2.38
2019-02-28T01:45:44.225Z,2.46
2019-02-28T01:46:42.279Z,2.40
2019-02-28T01:47:42.274Z,2.40
2019-02-28T01:48:42.257Z,2.41
2019-02-28T01:49:42.247Z,2.44
2019-02-28T01:50:42.267Z,2.45
2019-02-28T01:51:42.225Z,2.45
2019-02-28T01:52:45.677Z,2.49
2019-02-28T01:53:42.209Z,2.49
2019-02-28T01:54:42.193Z,2.56
2019-02-28T01:55:42.176Z,2.63
2019-02-28T01:56:42.180Z,2.58
2019-02-28T01:57:44.002Z,2.58
2019-02-28T01:58:42.145Z,2.59
2019-02-28T01:59:42.158Z,2.67
2019-02-28T02:00:42.122Z,2.76
2019-02-28T02:01:42.112Z,2.64
2019-02-28T02:02:42.112Z,2.77
2019-02-28T02:03:42.091Z,2.82
2019-02-28T02:04:43.164Z,2.79
2019-02-28T02:05:42.072Z,2.76
2019-02-28T02:06:42.056Z,2.81
2019-02-28T02:07:42.080Z,2.77
2019-02-28T02:08:42.034Z,2.77
2019-02-28T02:09:42.625Z,2.77
2019-02-28T02:10:42.012Z,2.79
2019-02-28T02:11:42.012Z,2.88
2019-02-28T02:12:41.993Z,2.88
2019-02-28T02:13:42.004Z,2.87
2019-02-28T02:14:44.655Z,2.91
2019-02-28T02:15:41.956Z,2.92
2019-02-28T02:16:41.945Z,2.97
2019-02-28T02:17:41.951Z,2.95
2019-02-28T02:18:43.412Z,3.23
2019-02-28T02:19:41.943Z,3.30
2019-02-28T02:20:41.906Z,3.50
2019-02-28T02:21:41.891Z,3.72
2019-02-28T02:22:44.489Z,3.82
2019-02-28T02:23:41.875Z,3.98
2019-02-28T02:24:41.859Z,4.03
2019-02-28T02:25:41.862Z,4.16
2019-02-28T02:26:42.327Z,4.21
2019-02-28T02:27:41.824Z,4.21
2019-02-28T02:28:41.812Z,4.19
2019-02-28T02:29:41.820Z,4.29
2019-02-28T02:30:41.789Z,4.34
2019-02-28T02:31:43.609Z,4.33
2019-02-28T02:32:41.774Z,4.33
2019-02-28T02:33:41.761Z,4.34
2019-02-28T02:34:41.758Z,4.40
2019-02-28T02:35:42.584Z,4.32
2019-02-28T02:36:41.725Z,4.25
2019-02-28T02:37:41.715Z,4.24
2019-02-28T02:38:41.887Z,4.21
2019-02-28T02:39:41.691Z,4.15
2019-02-28T02:40:41.680Z,4.25
2019-02-28T02:41:41.698Z,4.10
2019-02-28T02:42:47.470Z,3.97
2019-02-28T02:43:42.648Z,4.06
2019-02-28T02:44:41.637Z,3.89
2019-02-28T02:45:43.362Z,3.86
2019-02-28T02:46:41.613Z,3.79
2019-02-28T02:47:41.636Z,3.67
2019-02-28T02:48:42.309Z,3.67
2019-02-28T02:49:41.586Z,3.76
2019-02-28T02:50:41.568Z,3.71
2019-02-28T02:51:49.088Z,3.65
2019-02-28T02:52:42.602Z,3.76
2019-02-28T02:53:42.011Z,3.76
2019-02-28T02:54:41.524Z,3.71
2019-02-28T02:55:41.514Z,3.68
2019-02-28T02:56:42.196Z,3.72
2019-02-28T02:57:41.488Z,3.71
2019-02-28T02:58:41.492Z,3.79
2019-02-28T02:59:41.489Z,3.67
2019-02-28T03:00:41.458Z,3.64
2019-02-28T03:01:41.446Z,3.80
2019-02-28T03:02:41.436Z,3.78
2019-02-28T03:03:44.231Z,3.64
2019-02-28T03:04:41.414Z,3.64
2019-02-28T03:05:41.419Z,3.72
2019-02-28T03:06:41.391Z,3.85
2019-02-28T03:07:41.380Z,3.88
2019-02-28T03:08:41.367Z,3.89
2019-02-28T03:09:43.454Z,4.01
2019-02-28T03:10:41.347Z,3.88
2019-02-28T03:11:41.344Z,3.89
2019-02-28T03:12:41.322Z,3.82
2019-02-28T03:13:43.703Z,3.89
2019-02-28T03:14:41.301Z,3.85
2019-02-28T03:15:41.330Z,3.79
2019-02-28T03:16:41.279Z,3.79
2019-02-28T03:17:46.494Z,3.83
2019-02-28T03:18:42.263Z,4.06
2019-02-28T03:19:41.244Z,4.19
2019-02-28T03:20:42.488Z,4.32
2019-02-28T03:21:41.240Z,4.36
2019-02-28T03:22:41.213Z,4.58
2019-02-28T03:23:41.226Z,4.65
2019-02-28T03:24:41.190Z,4.70
2019-02-28T03:25:41.193Z,4.67
2019-02-28T03:26:42.045Z,4.72
2019-02-28T03:27:41.156Z,4.67
2019-02-28T03:28:41.147Z,4.75
2019-02-28T03:29:43.819Z,4.79
2019-02-28T03:30:41.145Z,4.67
2019-02-28T03:31:41.115Z,4.73
2019-02-28T03:32:42.701Z,4.77
2019-02-28T03:33:41.105Z,4.62
2019-02-28T03:34:41.084Z,4.57
2019-02-28T03:35:43.897Z,4.52
2019-02-28T03:36:41.070Z,4.50
2019-02-28T03:37:41.047Z,4.46
2019-02-28T03:38:48.560Z,4.54
2019-02-28T03:39:42.029Z,4.55
2019-02-28T03:40:41.274Z,4.55
2019-02-28T03:41:41.009Z,4.65
2019-02-28T03:42:41.005Z,4.75
2019-02-28T03:43:43.946Z,4.76
2019-02-28T03:44:40.982Z,4.89
2019-02-28T03:45:40.965Z,4.96
2019-02-28T03:46:46.407Z,4.98
2019-02-28T03:47:41.940Z,4.92
2019-02-28T03:48:40.926Z,4.89
2019-02-28T03:49:48.553Z,4.88
2019-02-28T03:50:41.903Z,4.79
2019-02-28T03:51:40.900Z,4.72
2019-02-28T03:52:43.957Z,4.64
2019-02-28T03:53:40.877Z,4.64
2019-02-28T03:54:40.877Z,4.67
2019-02-28T03:55:41.641Z,4.73
2019-02-28T03:56:40.851Z,4.73
2019-02-28T03:57:40.825Z,4.83
2019-02-28T03:58:42.886Z,4.80
2019-02-28T03:59:40.822Z,4.77
2019-02-28T04:00:40.800Z,4.61
2019-02-28T04:01:44.573Z,4.72
2019-02-28T04:02:40.772Z,4.73
2019-02-28T04:03:40.759Z,4.76
2019-02-28T04:04:48.793Z,4.62
2019-02-28T04:05:41.754Z,4.59
2019-02-28T04:06:41.055Z,4.58
2019-02-28T04:07:40.727Z,4.51
2019-02-28T04:08:40.712Z,4.36
2019-02-28T04:09:44.138Z,4.36
2019-02-28T04:10:40.680Z,4.34
2019-02-28T04:11:40.705Z,4.29
2019-02-28T04:12:44.921Z,4.22
2019-02-28T04:13:41.647Z,4.22
2019-02-28T04:14:40.643Z,4.19
2019-02-28T04:15:49.825Z,4.21
2019-02-28T04:16:41.645Z,4.25
2019-02-28T04:17:40.636Z,4.19
2019-02-28T04:18:46.148Z,4.19
2019-02-28T04:19:41.580Z,4.24
2019-02-28T04:20:40.570Z,4.43
2019-02-28T04:21:46.171Z,4.65
2019-02-28T04:22:41.563Z,4.77
2019-02-28T04:23:40.544Z,4.77
2019-02-28T04:24:40.545Z,4.70
2019-02-28T04:25:40.547Z,4.59
2019-02-28T04:26:40.506Z,4.59
2019-02-28T04:27:41.801Z,4.70
2019-02-28T04:28:40.539Z,4.58
2019-02-28T04:29:40.485Z,4.51
2019-02-28T04:30:43.857Z,4.51
2019-02-28T04:31:40.453Z,4.42
2019-02-28T04:32:40.456Z,4.46
2019-02-28T04:33:40.468Z,4.61
2019-02-28T04:34:40.415Z,4.59
2019-02-28T04:35:40.410Z,4.62
2019-02-28T04:36:40.415Z,4.51
2019-02-28T04:37:44.595Z,4.51
2019-02-28T04:38:41.383Z,4.39
2019-02-28T04:39:40.368Z,4.37
2019-02-28T04:40:40.373Z,4.50
2019-02-28T04:41:40.355Z,4.40
2019-02-28T04:42:40.327Z,4.37
2019-02-28T04:43:41.636Z,4.37
2019-02-28T04:44:40.317Z,4.39
2019-02-28T04:45:40.293Z,4.46
2019-02-28T04:46:40.295Z,4.40
2019-02-28T04:47:41.421Z,4.44
2019-02-28T04:48:40.264Z,4.34
2019-02-28T04:49:40.263Z,4.26
2019-02-28T04:50:40.239Z,4.18
2019-02-28T04:51:41.059Z,4.21
2019-02-28T04:52:46.712Z,4.21
2019-02-28T04:53:41.212Z,4.22
2019-02-28T04:54:40.195Z,4.25
2019-02-28T04:55:40.200Z,4.16
2019-02-28T04:56:42.343Z,4.14
2019-02-28T04:57:41.159Z,3.96
2019-02-28T04:58:40.150Z,3.94
2019-02-28T04:59:40.150Z,3.97
2019-02-28T05:00:40.128Z,4.06
2019-02-28T05:01:40.118Z,4.03
2019-02-28T05:02:40.118Z,3.97
2019-02-28T05:03:40.096Z,4.00
2019-02-28T05:04:40.084Z,3.90
2019-02-28T05:05:40.084Z,3.80
2019-02-28T05:06:40.068Z,3.85
2019-02-28T05:07:40.074Z,3.76
2019-02-28T05:08:40.040Z,3.72
2019-02-28T05:09:40.037Z,3.71
2019-02-28T05:10:40.025Z,3.58
2019-02-28T05:11:40.015Z,3.49
2019-02-28T05:12:41.031Z,3.50
2019-02-28T05:13:41.146Z,3.40
2019-02-28T05:14:39.985Z,3.39
2019-02-28T05:15:41.099Z,3.28
2019-02-28T05:16:39.949Z,3.23
2019-02-28T05:17:39.956Z,3.28
2019-02-28T05:18:39.931Z,3.21
2019-02-28T05:19:39.945Z,3.15
2019-02-28T05:20:45.184Z,3.02
2019-02-28T05:21:40.896Z,3.02
2019-02-28T05:22:39.884Z,3.02
2019-02-28T05:23:39.879Z,2.92
2019-02-28T05:24:42.593Z,2.89
2019-02-28T05:25:39.865Z,2.94
2019-02-28T05:26:39.843Z,2.88
2019-02-28T05:27:39.831Z,2.81
2019-02-28T05:28:41.170Z,2.82
2019-02-28T05:29:39.819Z,2.77
2019-02-28T05:30:41.499Z,2.71
2019-02-28T05:31:39.785Z,2.66
2019-02-28T05:32:39.785Z,2.69
2019-02-28T05:33:41.914Z,2.58
2019-02-28T05:34:39.750Z,2.51
2019-02-28T05:35:39.784Z,2.51
2019-02-28T05:36:39.728Z,2.51
2019-02-28T05:37:39.719Z,2.49
2019-02-28T05:38:39.708Z,2.45
2019-02-28T05:39:39.694Z,2.55
2019-02-28T05:40:41.333Z,2.89
2019-02-28T05:41:39.714Z,2.95
2019-02-28T05:42:39.664Z,2.97
2019-02-28T05:43:39.650Z,3.07
2019-02-28T05:44:40.432Z,2.97
2019-02-28T05:45:39.635Z,2.95
2019-02-28T05:46:39.625Z,2.94
2019-02-28T05:47:46.248Z,2.87
2019-02-28T05:48:40.595Z,2.76
2019-02-28T05:49:40.745Z,2.77
2019-02-28T05:50:39.579Z,2.79
2019-02-28T05:51:39.565Z,2.85
2019-02-28T05:52:39.558Z,2.87
2019-02-28T05:53:41.368Z,2.82
2019-02-28T05:54:39.529Z,2.79
2019-02-28T05:55:39.518Z,2.79
2019-02-28T05:56:39.507Z,2.79
2019-02-28T05:57:43.292Z,2.76
2019-02-28T05:58:40.517Z,2.81
2019-02-28T05:59:39.479Z,2.63
2019-02-28T06:00:39.461Z,2.55
2019-02-28T06:01:39.452Z,2.56
2019-02-28T06:02:39.447Z,2.45
2019-02-28T06:03:39.427Z,2.51
2019-02-28T06:04:39.451Z,2.61
2019-02-28T06:05:39.418Z,2.67
2019-02-28T06:06:39.396Z,2.77
2019-02-28T06:07:39.389Z,2.79
2019-02-28T06:08:40.020Z,2.74
2019-02-28T06:09:39.359Z,2.82
2019-02-28T06:10:39.402Z,2.71
2019-02-28T06:11:39.345Z,2.69
2019-02-28T06:12:40.396Z,2.73
2019-02-28T06:13:39.327Z,2.69
2019-02-28T06:14:39.309Z,2.69
2019-02-28T06:15:39.298Z,2.66
2019-02-28T06:16:39.305Z,2.64
2019-02-28T06:17:39.280Z,2.79
2019-02-28T06:18:39.269Z,2.73
2019-02-28T06:19:40.277Z,2.77
2019-02-28T06:20:39.260Z,2.73
2019-02-28T06:21:39.227Z,2.88
2019-02-28T06:22:39.215Z,2.87
2019-02-28T06:23:40.780Z,3.03
2019-02-28T06:24:39.196Z,3.07
2019-02-28T06:25:39.192Z,3.06
2019-02-28T06:26:39.197Z,3.10
2019-02-28T06:27:41.859Z,3.00
2019-02-28T06:28:39.158Z,3.06
2019-02-28T06:29:39.149Z,3.07
2019-02-28T06:30:41.550Z,3.12
2019-02-28T06:31:39.116Z,3.13
2019-02-28T06:32:39.119Z,3.12
2019-02-28T06:33:39.110Z,3.07
2019-02-28T06:34:39.494Z,3.10
2019-02-28T06:35:39.081Z,3.15
2019-02-28T06:36:39.061Z,3.03
2019-02-28T06:37:39.218Z,3.03
2019-02-28T06:38:39.066Z,2.98
2019-02-28T06:39:39.040Z,2.97
2019-02-28T06:40:39.018Z,3.03
2019-02-28T06:41:39.954Z,2.94
2019-02-28T06:42:38.995Z,2.97
2019-02-28T06:43:38.983Z,3.00
2019-02-28T06:44:38.985Z,3.00
2019-02-28T06:45:38.964Z,2.91
2019-02-28T06:46:39.813Z,2.95
2019-02-28T06:47:39.103Z,2.95
2019-02-28T06:48:38.927Z,3.06
2019-02-28T06:49:41.921Z,3.15
2019-02-28T06:50:38.905Z,3.15
2019-02-28T06:51:38.894Z,3.18
2019-02-28T06:52:38.887Z,3.24
2019-02-28T06:53:38.877Z,3.34
2019-02-28T06:54:39.854Z,3.30
2019-02-28T06:55:38.880Z,3.39
2019-02-28T06:56:38.839Z,3.53
2019-02-28T06:57:38.828Z,3.61
2019-02-28T06:58:38.826Z,3.67
2019-02-28T06:59:39.172Z,3.61
2019-02-28T07:00:38.795Z,3.58
2019-02-28T07:01:38.795Z,3.57
2019-02-28T07:02:38.772Z,3.60
2019-02-28T07:03:39.804Z,3.62
2019-02-28T07:04:38.752Z,3.67
2019-02-28T07:05:38.770Z,3.61
2019-02-28T07:06:38.728Z,3.61
2019-02-28T07:07:38.717Z,3.71
2019-02-28T07:08:38.705Z,3.64
2019-02-28T07:09:38.695Z,3.83
2019-02-28T07:10:38.686Z,3.85
2019-02-28T07:11:38.706Z,4.08
2019-02-28T07:12:38.663Z,4.25
2019-02-28T07:13:39.966Z,4.29
2019-02-28T07:14:38.638Z,4.40
2019-02-28T07:15:38.629Z,4.54
2019-02-28T07:16:38.622Z,4.69
2019-02-28T07:17:38.632Z,4.75
2019-02-28T07:18:38.609Z,4.77
2019-02-28T07:19:38.584Z,4.89
2019-02-28T07:20:38.575Z,4.98
2019-02-28T07:21:42.994Z,4.96
2019-02-28T07:22:40.137Z,4.92
2019-02-28T07:23:38.573Z,4.88
2019-02-28T07:24:38.530Z,4.94
2019-02-28T07:25:38.518Z,4.94
2019-02-28T07:26:38.506Z,5.02
2019-02-28T07:27:38.495Z,5.14
2019-02-28T07:28:38.484Z,5.16
2019-02-28T07:29:38.493Z,5.37
2019-02-28T07:30:38.460Z,5.34
2019-02-28T07:31:38.458Z,5.53
2019-02-28T07:32:38.438Z,5.60
2019-02-28T07:33:41.241Z,5.74
2019-02-28T07:34:39.420Z,5.70
2019-02-28T07:35:38.412Z,5.91
2019-02-28T07:36:38.399Z,5.95
2019-02-28T07:37:38.383Z,6.10
2019-02-28T07:38:38.371Z,6.13
2019-02-28T07:39:40.414Z,6.41
2019-02-28T07:40:38.349Z,6.48
2019-02-28T07:41:38.343Z,6.50
2019-02-28T07:42:38.588Z,6.54
2019-02-28T07:43:38.322Z,6.65
2019-02-28T07:44:38.311Z,6.63
2019-02-28T07:45:38.314Z,6.63
2019-02-28T07:46:38.549Z,6.76
2019-02-28T07:47:38.307Z,6.81
2019-02-28T07:48:38.263Z,6.79
2019-02-28T07:49:38.248Z,6.81
2019-02-28T07:50:38.237Z,6.80
2019-02-28T07:51:38.231Z,6.79
2019-02-28T07:52:38.217Z,6.77
2019-02-28T07:53:40.912Z,6.89
2019-02-28T07:54:38.196Z,6.90
2019-02-28T07:55:38.181Z,6.86
2019-02-28T07:56:42.832Z,6.90
2019-02-28T07:57:38.156Z,6.80
2019-02-28T07:58:38.159Z,6.90
2019-02-28T07:59:42.422Z,6.97
2019-02-28T08:00:38.126Z,6.94
2019-02-28T08:01:38.117Z,6.99
2019-02-28T08:02:39.228Z,7.02
2019-02-28T08:03:38.116Z,7.08
2019-02-28T08:04:38.080Z,7.08
2019-02-28T08:05:38.076Z,7.15
2019-02-28T08:06:39.207Z,7.13
2019-02-28T08:07:38.056Z,7.12
2019-02-28T08:08:38.036Z,7.19
2019-02-28T08:09:40.564Z,7.29
2019-02-28T08:10:38.019Z,7.22
2019-02-28T08:11:38.009Z,7.16
2019-02-28T08:12:38.001Z,7.26
2019-02-28T08:13:38.687Z,7.29
2019-02-28T08:14:37.969Z,7.37
2019-02-28T08:15:37.959Z,7.37
2019-02-28T08:16:37.948Z,7.42
2019-02-28T08:17:40.607Z,7.35
2019-02-28T08:18:38.934Z,7.38
2019-02-28T08:19:37.911Z,7.42
2019-02-28T08:20:37.922Z,7.47
2019-02-28T08:21:43.972Z,7.47
2019-02-28T08:22:38.877Z,7.59
2019-02-28T08:23:37.875Z,7.45
2019-02-28T08:24:37.855Z,7.50
2019-02-28T08:25:39.764Z,7.58
2019-02-28T08:26:37.865Z,7.60
2019-02-28T08:27:37.829Z,7.63
2019-02-28T08:28:37.812Z,7.63
2019-02-28T08:29:37.808Z,7.66
2019-02-28T08:30:37.788Z,7.77
2019-02-28T08:31:37.776Z,7.81
2019-02-28T08:32:42.738Z,7.84
2019-02-28T08:33:38.761Z,7.99
2019-02-28T08:34:37.746Z,8.04
2019-02-28T08:35:37.736Z,8.02
2019-02-28T08:36:37.717Z,8.11
2019-02-28T08:37:37.708Z,8.08
2019-02-28T08:38:37.729Z,8.28
2019-02-28T08:39:41.145Z,8.29
2019-02-28T08:40:37.673Z,8.25
2019-02-28T08:41:37.670Z,8.12
2019-02-28T08:42:39.677Z,8.17
2019-02-28T08:43:37.640Z,8.21
2019-02-28T08:44:37.659Z,8.25
2019-02-28T08:45:37.619Z,8.17
2019-02-28T08:46:37.608Z,8.28
2019-02-28T08:47:37.605Z,8.22
2019-02-28T08:48:37.589Z,8.26
2019-02-28T08:49:42.155Z,8.29
2019-02-28T08:50:38.577Z,8.33
2019-02-28T08:51:37.551Z,8.50
2019-02-28T08:52:40.970Z,8.44
2019-02-28T08:53:37.531Z,8.50
2019-02-28T08:54:37.555Z,8.44
2019-02-28T08:55:38.400Z,8.48
2019-02-28T08:56:37.495Z,8.50
2019-02-28T08:57:37.492Z,8.53
2019-02-28T08:58:38.362Z,8.60
2019-02-28T08:59:37.471Z,8.63
2019-02-28T09:00:37.822Z,8.58
2019-02-28T09:01:40.170Z,8.60
2019-02-28T09:02:37.428Z,8.65
2019-02-28T09:03:37.418Z,8.65
2019-02-28T09:04:41.161Z,8.68
2019-02-28T09:05:38.414Z,8.66
2019-02-28T09:06:37.887Z,8.72
2019-02-28T09:07:37.373Z,8.84
2019-02-28T09:08:37.362Z,8.79
2019-02-28T09:09:37.353Z,8.78
2019-02-28T09:10:37.524Z,8.75
2019-02-28T09:11:37.354Z,8.81
2019-02-28T09:12:37.322Z,8.75
2019-02-28T09:13:39.951Z,8.83
2019-02-28T09:14:38.297Z,8.90
2019-02-28T09:15:37.284Z,8.93
2019-02-28T09:16:39.688Z,8.99
2019-02-28T09:17:37.877Z,9.12
2019-02-28T09:18:37.251Z,9.05
2019-02-28T09:19:37.239Z,9.21
2019-02-28T09:20:37.229Z,9.25
2019-02-28T09:21:37.223Z,9.30
2019-02-28T09:22:37.238Z,9.38
2019-02-28T09:23:37.747Z,9.38
2019-02-28T09:24:37.181Z,9.49
2019-02-28T09:25:37.171Z,9.49
2019-02-28T09:26:37.160Z,9.60
2019-02-28T09:27:38.777Z,9.61
2019-02-28T09:28:37.149Z,9.67
2019-02-28T09:29:37.134Z,9.61
2019-02-28T09:30:37.126Z,9.63
2019-02-28T09:31:39.052Z,9.60
2019-02-28T09:32:37.092Z,9.64
2019-02-28T09:33:37.078Z,9.61
2019-02-28T09:34:37.099Z,9.82
2019-02-28T09:35:37.072Z,9.78
2019-02-28T09:36:37.044Z,9.78
2019-02-28T09:37:37.036Z,9.67
2019-02-28T09:38:37.026Z,9.78
2019-02-28T09:39:37.013Z,9.71
2019-02-28T09:40:37.012Z,9.66
2019-02-28T09:41:40.198Z,9.64
2019-02-28T09:42:36.979Z,9.75
2019-02-28T09:43:36.968Z,9.64
2019-02-28T09:44:36.955Z,9.66
2019-02-28T09:45:39.844Z,9.60
2019-02-28T09:46:36.933Z,9.64
2019-02-28T09:47:36.930Z,9.68
2019-02-28T09:48:37.921Z,9.73
2019-02-28T09:49:36.905Z,9.81
2019-02-28T09:50:36.890Z,9.89
2019-02-28T09:51:36.888Z,9.99
2019-02-28T09:52:41.298Z,10.00
2019-02-28T09:53:36.857Z,10.15
2019-02-28T09:54:36.844Z,10.17
2019-02-28T09:55:36.856Z,10.18
2019-02-28T09:56:36.821Z,10.25
2019-02-28T09:57:36.815Z,10.24
2019-02-28T09:58:36.797Z,10.33
2019-02-28T09:59:37.816Z,10.34
2019-02-28T10:00:36.786Z,10.33
2019-02-28T10:01:36.761Z,10.25
2019-02-28T10:02:36.752Z,10.25
2019-02-28T10:03:36.739Z,10.33
2019-02-28T10:04:36.730Z,10.25
2019-02-28T10:05:39.036Z,10.18
2019-02-28T10:06:37.709Z,10.10
2019-02-28T10:07:36.696Z,10.06
2019-02-28T10:08:38.015Z,10.04
2019-02-28T10:09:36.674Z,10.04
2019-02-28T10:10:36.662Z,10.00
2019-02-28T10:11:36.691Z,10.04
2019-02-28T10:12:39.474Z,10.12
2019-02-28T10:13:37.628Z,10.09
2019-02-28T10:14:36.616Z,10.21
2019-02-28T10:15:38.738Z,10.26
2019-02-28T10:16:37.603Z,10.17
2019-02-28T10:17:36.611Z,10.15
2019-02-28T10:18:38.900Z,10.24
2019-02-28T10:19:43.878Z,10.30
2019-02-28T10:20:37.547Z,10.22
2019-02-28T10:21:39.488Z,10.30
2019-02-28T10:22:36.525Z,10.37
2019-02-28T10:23:36.543Z,10.40
2019-02-28T10:24:36.502Z,10.43
2019-02-28T10:25:41.020Z,10.55
2019-02-28T10:26:37.477Z,10.58
2019-02-28T10:27:36.467Z,10.55
2019-02-28T10:28:36.457Z,10.74
2019-02-28T10:29:38.511Z,10.76
2019-02-28T10:30:37.432Z,10.84
2019-02-28T10:31:38.472Z,10.89
2019-02-28T10:32:36.421Z,10.94
2019-02-28T10:33:36.402Z,10.98
2019-02-28T10:34:36.403Z,11.03
2019-02-28T10:35:37.563Z,11.06
2019-02-28T10:36:36.410Z,11.07
2019-02-28T10:37:36.358Z,11.13
2019-02-28T10:38:36.349Z,11.20
2019-02-28T10:39:36.332Z,11.19
2019-02-28T10:40:36.321Z,11.25
2019-02-28T10:41:36.313Z,11.25
2019-02-28T10:42:36.999Z,11.24
2019-02-28T10:43:36.299Z,11.28
2019-02-28T10:44:36.275Z,11.24
2019-02-28T10:45:41.262Z,11.29
2019-02-28T10:46:37.252Z,11.31
2019-02-28T10:47:36.263Z,11.31
2019-02-28T10:48:41.879Z,11.35
2019-02-28T10:49:37.220Z,11.24
2019-02-28T10:50:36.211Z,11.34
2019-02-28T10:51:36.196Z,11.36
2019-02-28T10:52:36.213Z,11.38
2019-02-28T10:53:39.001Z,11.41
2019-02-28T10:54:36.165Z,11.46
2019-02-28T10:55:36.153Z,11.39
2019-02-28T10:56:36.140Z,11.54
2019-02-28T10:57:37.198Z,11.43
2019-02-28T10:58:36.132Z,11.59
2019-02-28T10:59:36.115Z,11.59
2019-02-28T11:00:36.094Z,11.68
2019-02-28T11:01:36.083Z,11.64
2019-02-28T11:02:36.075Z,11.65
2019-02-28T11:03:36.078Z,11.68
2019-02-28T11:04:36.060Z,11.62
2019-02-28T11:05:36.047Z,11.67
2019-02-28T11:06:36.028Z,11.74
2019-02-28T11:07:37.713Z,11.77
2019-02-28T11:08:36.042Z,11.89
2019-02-28T11:09:35.994Z,11.72
2019-02-28T11:10:36.314Z,11.75
2019-02-28T11:11:35.984Z,11.70
2019-02-28T11:12:35.962Z,11.71
2019-02-28T11:13:35.949Z,11.75
2019-02-28T11:14:38.661Z,11.75
2019-02-28T11:15:35.927Z,11.71
2019-02-28T11:16:36.177Z,11.75
2019-02-28T11:17:35.906Z,11.77
2019-02-28T11:18:36.497Z,11.96
2019-02-28T11:19:35.884Z,11.99
2019-02-28T11:20:35.882Z,12.12
2019-02-28T11:21:35.860Z,12.08
2019-02-28T11:22:36.565Z,12.15
2019-02-28T11:23:35.841Z,12.15
2019-02-28T11:24:35.837Z,12.23
2019-02-28T11:25:35.828Z,12.33
2019-02-28T11:26:35.818Z,12.34
2019-02-28T11:27:35.791Z,12.30
2019-02-28T11:28:35.782Z,12.39
2019-02-28T11:29:36.375Z,12.38
2019-02-28T11:30:36.200Z,12.30
2019-02-28T11:31:35.786Z,12.38
2019-02-28T11:32:35.742Z,12.46
2019-02-28T11:33:36.537Z,12.54
2019-02-28T11:34:35.722Z,12.59
2019-02-28T11:35:35.702Z,12.56
2019-02-28T11:36:35.691Z,12.67
2019-02-28T11:37:35.692Z,12.67
2019-02-28T11:38:35.682Z,12.70
2019-02-28T11:39:35.655Z,12.67
2019-02-28T11:40:35.645Z,12.75
2019-02-28T11:41:35.633Z,12.79
2019-02-28T11:42:35.634Z,12.75
2019-02-28T11:43:38.460Z,12.70
2019-02-28T11:44:35.615Z,12.75
2019-02-28T11:45:35.589Z,12.78
2019-02-28T11:46:36.557Z,12.99
2019-02-28T11:47:35.578Z,13.07
2019-02-28T11:48:35.571Z,13.06
2019-02-28T11:49:35.551Z,13.04
2019-02-28T11:50:41.235Z,13.07
2019-02-28T11:51:36.516Z,13.09
2019-02-28T11:52:35.523Z,12.97
2019-02-28T11:53:39.251Z,12.95
2019-02-28T11:54:35.487Z,12.96
2019-02-28T11:55:35.486Z,13.07
2019-02-28T11:56:35.470Z,13.18
2019-02-28T11:57:37.690Z,13.14
2019-02-28T11:58:36.441Z,13.18
2019-02-28T11:59:35.432Z,13.18
2019-02-28T12:00:36.567Z,13.27
2019-02-28T12:01:35.412Z,13.18
2019-02-28T12:02:35.403Z,13.17
2019-02-28T12:03:35.655Z,13.11
2019-02-28T12:04:37.405Z,13.18
2019-02-28T12:05:35.363Z,13.20
2019-02-28T12:06:35.350Z,13.09
2019-02-28T12:07:35.678Z,13.11
2019-02-28T12:08:35.335Z,13.17
2019-02-28T12:09:35.449Z,13.14
2019-02-28T12:10:35.322Z,13.24
2019-02-28T12:11:36.555Z,13.22
2019-02-28T12:12:35.281Z,13.30
2019-02-28T12:13:35.274Z,13.14
2019-02-28T12:14:35.265Z,13.17
2019-02-28T12:15:38.122Z,13.20
2019-02-28T12:16:35.355Z,13.25
2019-02-28T12:17:35.226Z,13.20
2019-02-28T12:18:39.489Z,13.18
2019-02-28T12:19:35.204Z,13.18
2019-02-28T12:20:35.201Z,13.20
2019-02-28T12:21:37.828Z,13.20
2019-02-28T12:22:35.207Z,13.37
2019-02-28T12:23:35.160Z,13.32
2019-02-28T12:24:35.148Z,13.44
2019-02-28T12:25:35.137Z,13.49
2019-02-28T12:26:35.132Z,13.52
2019-02-28T12:27:35.116Z,13.47
2019-02-28T12:28:37.976Z,13.32
2019-02-28T12:29:35.092Z,13.36
2019-02-28T12:30:35.081Z,13.25
2019-02-28T12:31:35.755Z,13.30
2019-02-28T12:32:35.064Z,13.38
2019-02-28T12:33:35.059Z,13.25
2019-02-28T12:34:35.033Z,13.36
2019-02-28T12:35:40.022Z,13.33
2019-02-28T12:36:36.008Z,13.37
2019-02-28T12:37:35.008Z,13.29
2019-02-28T12:38:35.014Z,13.36
2019-02-28T12:39:36.385Z,13.30
2019-02-28T12:40:34.977Z,13.22
2019-02-28T12:41:34.954Z,13.25
2019-02-28T12:42:35.371Z,13.41
2019-02-28T12:43:34.935Z,13.36
2019-02-28T12:44:34.945Z,13.33
2019-02-28T12:45:34.912Z,13.43
2019-02-28T12:46:34.908Z,13.33
2019-02-28T12:47:34.887Z,13.41
2019-02-28T12:48:34.877Z,13.40
2019-02-28T12:49:34.866Z,13.32
2019-02-28T12:50:34.859Z,13.36
2019-02-28T12:51:36.570Z,13.27
2019-02-28T12:52:34.830Z,13.32
2019-02-28T12:53:34.817Z,13.27
2019-02-28T12:54:34.813Z,13.22
2019-02-28T12:55:35.614Z,13.30
2019-02-28T12:56:34.811Z,13.18
2019-02-28T12:57:34.799Z,13.37
2019-02-28T12:58:38.658Z,13.37
2019-02-28T12:59:34.896Z,13.36
2019-02-28T13:00:34.743Z,13.52
2019-02-28T13:01:34.730Z,13.44
2019-02-28T13:02:34.721Z,13.36
2019-02-28T13:03:34.718Z,13.47
2019-02-28T13:04:35.883Z,13.46
2019-02-28T13:05:34.684Z,13.54
2019-02-28T13:06:34.678Z,13.46
2019-02-28T13:07:34.713Z,13.59
2019-02-28T13:08:34.666Z,13.46
2019-02-28T13:09:34.647Z,13.36
2019-02-28T13:10:34.627Z,13.37
2019-02-28T13:11:35.874Z,13.32